sensor_id;sensor_type;location;lat;lon;timestamp;temperature;humidity
2459;DHT22;1241;50.920;6.936;2022-08-11T00:02:35;22.50;93.70
2459;DHT22;1241;50.920;6.936;2022-08-11T00:05:09;22.60;93.00
2459;DHT22;1241;50.920;6.936;2022-08-11T00:07:53;22.60;93.40
2459;DHT22;1241;50.920;6.936;2022-08-11T00:10:24;22.60;93.40
2459;DHT22;1241;50.920;6.936;2022-08-11T00:13:02;22.60;94.00
2459;DHT22;1241;50.920;6.936;2022-08-11T00:15:38;22.60;94.60
2459;DHT22;1241;50.920;6.936;2022-08-11T00:18:06;22.60;94.60
2459;DHT22;1241;50.920;6.936;2022-08-11T00:20:35;22.60;95.20
2459;DHT22;1241;50.920;6.936;2022-08-11T00:23:09;22.50;95.50
2459;DHT22;1241;50.920;6.936;2022-08-11T00:25:48;22.50;95.60
2459;DHT22;1241;50.920;6.936;2022-08-11T00:30:50;22.50;96.10
2459;DHT22;1241;50.920;6.936;2022-08-11T00:33:17;22.50;96.60
2459;DHT22;1241;50.920;6.936;2022-08-11T00:35:44;22.40;96.90
2459;DHT22;1241;50.920;6.936;2022-08-11T00:38:12;22.30;97.00
2459;DHT22;1241;50.920;6.936;2022-08-11T00:40:44;22.30;97.80
2459;DHT22;1241;50.920;6.936;2022-08-11T00:43:23;22.30;97.70
2459;DHT22;1241;50.920;6.936;2022-08-11T00:46:01;22.30;98.00
2459;DHT22;1241;50.920;6.936;2022-08-11T01:02:18;22.10;99.90
2459;DHT22;1241;50.920;6.936;2022-08-11T01:44:55;21.20;99.90
2459;DHT22;1241;50.920;6.936;2022-08-11T01:47:46;21.20;99.90
2459;DHT22;1241;50.920;6.936;2022-08-11T02:00:54;20.60;99.90
2459;DHT22;1241;50.920;6.936;2022-08-11T02:03:33;20.50;99.90
2459;DHT22;1241;50.920;6.936;2022-08-11T02:09:31;20.50;99.90
2459;DHT22;1241;50.920;6.936;2022-08-11T02:12:59;20.40;99.90
2459;DHT22;1241;50.920;6.936;2022-08-11T02:17:58;20.30;99.90
2459;DHT22;1241;50.920;6.936;2022-08-11T02:20:30;20.30;99.90
2459;DHT22;1241;50.920;6.936;2022-08-11T02:23:32;20.20;99.90
2459;DHT22;1241;50.920;6.936;2022-08-11T02:48:19;20.30;99.90
2459;DHT22;1241;50.920;6.936;2022-08-11T02:59:37;20.10;99.90
2459;DHT22;1241;50.920;6.936;2022-08-11T03:19:28;19.90;99.90
2459;DHT22;1241;50.920;6.936;2022-08-11T03:30:18;19.90;99.90
2459;DHT22;1241;50.920;6.936;2022-08-11T03:36:09;19.90;99.90
2459;DHT22;1241;50.920;6.936;2022-08-11T03:41:33;19.90;99.90
2459;DHT22;1241;50.920;6.936;2022-08-11T03:50:25;19.80;99.90
2459;DHT22;1241;50.920;6.936;2022-08-11T03:53:09;19.90;99.90
2459;DHT22;1241;50.920;6.936;2022-08-11T03:56:05;19.80;99.90
2459;DHT22;1241;50.920;6.936;2022-08-11T04:01:43;19.70;99.90
2459;DHT22;1241;50.920;6.936;2022-08-11T04:07:17;19.70;99.90
2459;DHT22;1241;50.920;6.936;2022-08-11T04:18:49;19.60;99.90
2459;DHT22;1241;50.920;6.936;2022-08-11T04:45:34;19.50;99.90
2459;DHT22;1241;50.920;6.936;2022-08-11T04:51:24;19.80;99.90
2459;DHT22;1241;50.920;6.936;2022-08-11T04:58:06;19.90;99.90
2459;DHT22;1241;50.920;6.936;2022-08-11T05:14:57;20.30;99.90
2459;DHT22;1241;50.920;6.936;2022-08-11T05:20:54;20.70;99.90
2459;DHT22;1241;50.920;6.936;2022-08-11T05:23:45;21.30;99.90
2459;DHT22;1241;50.920;6.936;2022-08-11T05:26:46;21.70;99.90
2459;DHT22;1241;50.920;6.936;2022-08-11T05:29:47;22.20;99.90
2459;DHT22;1241;50.920;6.936;2022-08-11T05:32:35;22.50;99.90
2459;DHT22;1241;50.920;6.936;2022-08-11T05:35:34;22.40;99.90
2459;DHT22;1241;50.920;6.936;2022-08-11T05:38:03;22.40;99.90
2459;DHT22;1241;50.920;6.936;2022-08-11T05:40:54;22.30;99.90
2459;DHT22;1241;50.920;6.936;2022-08-11T05:43:42;22.40;99.90
2459;DHT22;1241;50.920;6.936;2022-08-11T05:46:27;22.60;99.90
2459;DHT22;1241;50.920;6.936;2022-08-11T05:49:13;22.60;99.90
2459;DHT22;1241;50.920;6.936;2022-08-11T05:51:58;22.60;99.90
2459;DHT22;1241;50.920;6.936;2022-08-11T05:54:43;22.70;99.90
2459;DHT22;1241;50.920;6.936;2022-08-11T05:57:30;22.70;99.90
2459;DHT22;1241;50.920;6.936;2022-08-11T06:00:03;22.70;99.90
2459;DHT22;1241;50.920;6.936;2022-08-11T06:02:33;22.90;99.90
2459;DHT22;1241;50.920;6.936;2022-08-11T06:05:04;23.00;99.90
2459;DHT22;1241;50.920;6.936;2022-08-11T06:07:31;23.30;99.90
2459;DHT22;1241;50.920;6.936;2022-08-11T06:09:58;23.60;99.90
2459;DHT22;1241;50.920;6.936;2022-08-11T06:12:34;23.80;99.90
2459;DHT22;1241;50.920;6.936;2022-08-11T06:15:12;24.10;99.90
2459;DHT22;1241;50.920;6.936;2022-08-11T06:17:45;24.20;99.90
2459;DHT22;1241;50.920;6.936;2022-08-11T06:20:13;24.30;99.90
2459;DHT22;1241;50.920;6.936;2022-08-11T06:22:43;24.50;99.90
2459;DHT22;1241;50.920;6.936;2022-08-11T06:25:10;24.60;99.20
2459;DHT22;1241;50.920;6.936;2022-08-11T06:27:38;24.90;99.10
2459;DHT22;1241;50.920;6.936;2022-08-11T06:30:06;25.10;98.70
2459;DHT22;1241;50.920;6.936;2022-08-11T06:32:41;25.80;95.90
2459;DHT22;1241;50.920;6.936;2022-08-11T06:38:09;26.50;93.40
2459;DHT22;1241;50.920;6.936;2022-08-11T06:43:18;27.30;90.10
2459;DHT22;1241;50.920;6.936;2022-08-11T06:45:54;27.70;87.90
2459;DHT22;1241;50.920;6.936;2022-08-11T06:48:23;28.10;85.80
2459;DHT22;1241;50.920;6.936;2022-08-11T06:50:59;28.70;82.90
2459;DHT22;1241;50.920;6.936;2022-08-11T06:53:52;29.10;78.90
2459;DHT22;1241;50.920;6.936;2022-08-11T06:56:28;29.00;76.90
2459;DHT22;1241;50.920;6.936;2022-08-11T06:59:16;29.20;75.70
2459;DHT22;1241;50.920;6.936;2022-08-11T07:02:21;29.50;74.40
2459;DHT22;1241;50.920;6.936;2022-08-11T07:04:59;29.60;73.40
2459;DHT22;1241;50.920;6.936;2022-08-11T07:13:26;30.20;69.10
2459;DHT22;1241;50.920;6.936;2022-08-11T07:16:19;30.10;68.60
2459;DHT22;1241;50.920;6.936;2022-08-11T07:18:48;30.30;69.00
2459;DHT22;1241;50.920;6.936;2022-08-11T07:21:34;30.60;68.60
2459;DHT22;1241;50.920;6.936;2022-08-11T07:24:31;30.90;66.50
2459;DHT22;1241;50.920;6.936;2022-08-11T07:27:19;30.90;66.60
2459;DHT22;1241;50.920;6.936;2022-08-11T07:30:08;30.90;65.50
2459;DHT22;1241;50.920;6.936;2022-08-11T07:32:49;31.00;64.90
2459;DHT22;1241;50.920;6.936;2022-08-11T07:35:17;30.80;65.40
2459;DHT22;1241;50.920;6.936;2022-08-11T07:37:49;30.60;64.70
2459;DHT22;1241;50.920;6.936;2022-08-11T07:40:21;30.60;64.70
2459;DHT22;1241;50.920;6.936;2022-08-11T07:42:51;30.50;64.80
2459;DHT22;1241;50.920;6.936;2022-08-11T07:45:18;30.30;65.60
2459;DHT22;1241;50.920;6.936;2022-08-11T07:48:03;30.50;64.90
2459;DHT22;1241;50.920;6.936;2022-08-11T07:50:48;30.70;64.90
2459;DHT22;1241;50.920;6.936;2022-08-11T07:53:33;30.60;63.60
2459;DHT22;1241;50.920;6.936;2022-08-11T07:56:03;30.30;63.60
2459;DHT22;1241;50.920;6.936;2022-08-11T07:58:31;30.00;64.10
2459;DHT22;1241;50.920;6.936;2022-08-11T08:01:22;29.70;65.50
2459;DHT22;1241;50.920;6.936;2022-08-11T08:04:09;29.40;65.40
2459;DHT22;1241;50.920;6.936;2022-08-11T08:06:56;29.20;65.40
2459;DHT22;1241;50.920;6.936;2022-08-11T08:09:41;29.00;66.50
2459;DHT22;1241;50.920;6.936;2022-08-11T08:12:26;28.70;65.60
2459;DHT22;1241;50.920;6.936;2022-08-11T08:15:13;28.50;66.50
2459;DHT22;1241;50.920;6.936;2022-08-11T08:17:59;28.40;66.90
2459;DHT22;1241;50.920;6.936;2022-08-11T08:20:33;28.10;66.90
2459;DHT22;1241;50.920;6.936;2022-08-11T08:23:01;27.90;67.40
2459;DHT22;1241;50.920;6.936;2022-08-11T08:25:29;27.40;68.30
2459;DHT22;1241;50.920;6.936;2022-08-11T08:27:56;27.30;69.00
2459;DHT22;1241;50.920;6.936;2022-08-11T08:30:25;27.20;69.50
2459;DHT22;1241;50.920;6.936;2022-08-11T08:33:21;27.30;69.50
2459;DHT22;1241;50.920;6.936;2022-08-11T08:35:51;27.30;69.20
2459;DHT22;1241;50.920;6.936;2022-08-11T08:38:38;27.50;69.30
2459;DHT22;1241;50.920;6.936;2022-08-11T08:41:04;27.40;68.70
2459;DHT22;1241;50.920;6.936;2022-08-11T08:43:31;27.50;69.00
2459;DHT22;1241;50.920;6.936;2022-08-11T08:45:58;27.60;68.30
2459;DHT22;1241;50.920;6.936;2022-08-11T08:48:25;27.70;68.00
2459;DHT22;1241;50.920;6.936;2022-08-11T08:51:09;27.80;67.50
2459;DHT22;1241;50.920;6.936;2022-08-11T08:53:58;27.90;67.20
2459;DHT22;1241;50.920;6.936;2022-08-11T08:56:27;27.80;66.80
2459;DHT22;1241;50.920;6.936;2022-08-11T08:58:54;27.70;66.70
2459;DHT22;1241;50.920;6.936;2022-08-11T09:01:21;27.70;67.10
2459;DHT22;1241;50.920;6.936;2022-08-11T09:03:50;27.70;67.50
2459;DHT22;1241;50.920;6.936;2022-08-11T09:06:16;27.90;67.00
2459;DHT22;1241;50.920;6.936;2022-08-11T09:08:44;27.90;67.30
2459;DHT22;1241;50.920;6.936;2022-08-11T09:11:10;28.00;67.10
2459;DHT22;1241;50.920;6.936;2022-08-11T09:13:57;28.10;66.70
2459;DHT22;1241;50.920;6.936;2022-08-11T09:16:23;28.20;66.00
2459;DHT22;1241;50.920;6.936;2022-08-11T09:18:50;28.30;66.20
2459;DHT22;1241;50.920;6.936;2022-08-11T09:21:17;28.30;65.90
2459;DHT22;1241;50.920;6.936;2022-08-11T09:23:49;28.40;65.30
2459;DHT22;1241;50.920;6.936;2022-08-11T09:26:39;28.40;65.10
2459;DHT22;1241;50.920;6.936;2022-08-11T09:29:32;28.30;65.10
2459;DHT22;1241;50.920;6.936;2022-08-11T09:31:58;28.10;64.50
2459;DHT22;1241;50.920;6.936;2022-08-11T09:34:25;28.10;64.80
2459;DHT22;1241;50.920;6.936;2022-08-11T09:36:52;28.20;65.60
2459;DHT22;1241;50.920;6.936;2022-08-11T09:39:39;28.40;64.40
2459;DHT22;1241;50.920;6.936;2022-08-11T09:42:24;28.60;63.60
2459;DHT22;1241;50.920;6.936;2022-08-11T09:45:12;28.90;63.60
2459;DHT22;1241;50.920;6.936;2022-08-11T09:47:38;29.20;62.70
2459;DHT22;1241;50.920;6.936;2022-08-11T09:50:05;29.40;62.10
2459;DHT22;1241;50.920;6.936;2022-08-11T09:52:37;29.50;61.20
2459;DHT22;1241;50.920;6.936;2022-08-11T09:55:04;29.50;61.90
2459;DHT22;1241;50.920;6.936;2022-08-11T09:57:38;29.50;59.40
2459;DHT22;1241;50.920;6.936;2022-08-11T10:00:30;29.50;59.10
2459;DHT22;1241;50.920;6.936;2022-08-11T10:02:57;29.40;59.20
2459;DHT22;1241;50.920;6.936;2022-08-11T10:05:24;29.50;59.10
2459;DHT22;1241;50.920;6.936;2022-08-11T10:08:13;29.60;59.10
2459;DHT22;1241;50.920;6.936;2022-08-11T10:10:42;29.80;58.60
2459;DHT22;1241;50.920;6.936;2022-08-11T10:13:17;29.80;57.40
2459;DHT22;1241;50.920;6.936;2022-08-11T10:15:45;29.90;57.00
2459;DHT22;1241;50.920;6.936;2022-08-11T10:18:17;29.90;57.00
2459;DHT22;1241;50.920;6.936;2022-08-11T10:23:55;29.70;57.10
2459;DHT22;1241;50.920;6.936;2022-08-11T10:26:42;29.60;57.40
2459;DHT22;1241;50.920;6.936;2022-08-11T10:29:31;29.70;57.50
2459;DHT22;1241;50.920;6.936;2022-08-11T10:32:28;29.50;56.90
2459;DHT22;1241;50.920;6.936;2022-08-11T10:35:17;29.70;57.00
2459;DHT22;1241;50.920;6.936;2022-08-11T10:37:45;29.70;57.10
2459;DHT22;1241;50.920;6.936;2022-08-11T10:40:17;29.80;56.90
2459;DHT22;1241;50.920;6.936;2022-08-11T10:42:53;29.90;56.90
2459;DHT22;1241;50.920;6.936;2022-08-11T10:45:35;30.00;56.50
2459;DHT22;1241;50.920;6.936;2022-08-11T10:48:21;30.10;56.20
2459;DHT22;1241;50.920;6.936;2022-08-11T10:50:49;30.30;55.90
2459;DHT22;1241;50.920;6.936;2022-08-11T10:53:45;30.30;55.70
2459;DHT22;1241;50.920;6.936;2022-08-11T10:56:37;30.40;55.60
2459;DHT22;1241;50.920;6.936;2022-08-11T10:59:25;30.40;54.20
2459;DHT22;1241;50.920;6.936;2022-08-11T11:01:52;30.40;54.40
2459;DHT22;1241;50.920;6.936;2022-08-11T11:08:16;30.30;54.20
2459;DHT22;1241;50.920;6.936;2022-08-11T11:10:25;30.20;53.70
2459;DHT22;1241;50.920;6.936;2022-08-11T11:12:54;30.20;53.70
2459;DHT22;1241;50.920;6.936;2022-08-11T11:15:43;30.20;53.60
2459;DHT22;1241;50.920;6.936;2022-08-11T11:18:31;30.20;53.10
2459;DHT22;1241;50.920;6.936;2022-08-11T11:21:07;30.20;53.50
2459;DHT22;1241;50.920;6.936;2022-08-11T11:29:38;30.50;53.10
2459;DHT22;1241;50.920;6.936;2022-08-11T11:35:09;30.70;53.20
2459;DHT22;1241;50.920;6.936;2022-08-11T11:37:37;30.80;53.10
2459;DHT22;1241;50.920;6.936;2022-08-11T11:40:10;30.90;52.60
2459;DHT22;1241;50.920;6.936;2022-08-11T11:42:40;30.90;52.30
2459;DHT22;1241;50.920;6.936;2022-08-11T11:45:08;30.90;51.60
2459;DHT22;1241;50.920;6.936;2022-08-11T11:47:36;30.80;51.60
2459;DHT22;1241;50.920;6.936;2022-08-11T11:50:04;30.60;51.90
2459;DHT22;1241;50.920;6.936;2022-08-11T11:52:32;30.70;51.90
2459;DHT22;1241;50.920;6.936;2022-08-11T11:54:58;30.80;51.40
2459;DHT22;1241;50.920;6.936;2022-08-11T11:57:25;30.80;52.70
2459;DHT22;1241;50.920;6.936;2022-08-11T12:00:10;30.80;51.70
2459;DHT22;1241;50.920;6.936;2022-08-11T12:02:57;30.90;51.80
2459;DHT22;1241;50.920;6.936;2022-08-11T12:05:25;31.10;51.50
2459;DHT22;1241;50.920;6.936;2022-08-11T12:07:53;31.30;51.50
2459;DHT22;1241;50.920;6.936;2022-08-11T12:10:47;31.40;50.90
2459;DHT22;1241;50.920;6.936;2022-08-11T12:13:16;31.30;51.10
2459;DHT22;1241;50.920;6.936;2022-08-11T12:16:01;31.20;51.30
2459;DHT22;1241;50.920;6.936;2022-08-11T12:18:34;31.00;50.30
2459;DHT22;1241;50.920;6.936;2022-08-11T12:21:02;31.00;49.90
2459;DHT22;1241;50.920;6.936;2022-08-11T12:23:28;31.10;50.30
2459;DHT22;1241;50.920;6.936;2022-08-11T12:26:14;31.10;50.90
2459;DHT22;1241;50.920;6.936;2022-08-11T12:29:00;31.00;50.30
2459;DHT22;1241;50.920;6.936;2022-08-11T12:31:33;30.80;50.80
2459;DHT22;1241;50.920;6.936;2022-08-11T12:36:27;30.80;50.70
2459;DHT22;1241;50.920;6.936;2022-08-11T12:38:53;30.90;50.60
2459;DHT22;1241;50.920;6.936;2022-08-11T12:41:20;30.90;50.80
2459;DHT22;1241;50.920;6.936;2022-08-11T12:44:08;31.00;50.80
2459;DHT22;1241;50.920;6.936;2022-08-11T12:46:56;31.00;51.00
2459;DHT22;1241;50.920;6.936;2022-08-11T12:49:25;31.20;50.90
2459;DHT22;1241;50.920;6.936;2022-08-11T12:52:21;31.30;50.80
2459;DHT22;1241;50.920;6.936;2022-08-11T12:57:38;31.40;50.30
2459;DHT22;1241;50.920;6.936;2022-08-11T13:00:24;31.30;50.40
2459;DHT22;1241;50.920;6.936;2022-08-11T13:03:10;31.30;50.40
2459;DHT22;1241;50.920;6.936;2022-08-11T13:06:00;31.40;50.30
2459;DHT22;1241;50.920;6.936;2022-08-11T13:08:28;31.40;50.20
2459;DHT22;1241;50.920;6.936;2022-08-11T13:10:57;31.30;50.30
2459;DHT22;1241;50.920;6.936;2022-08-11T13:13:42;31.30;49.90
2459;DHT22;1241;50.920;6.936;2022-08-11T13:16:09;31.40;49.90
2459;DHT22;1241;50.920;6.936;2022-08-11T13:18:36;31.40;49.80
2459;DHT22;1241;50.920;6.936;2022-08-11T13:21:03;31.50;49.70
2459;DHT22;1241;50.920;6.936;2022-08-11T13:23:30;31.60;49.60
2459;DHT22;1241;50.920;6.936;2022-08-11T13:25:56;31.60;49.60
2459;DHT22;1241;50.920;6.936;2022-08-11T13:28:22;31.60;49.80
2459;DHT22;1241;50.920;6.936;2022-08-11T13:30:49;31.70;49.40
2459;DHT22;1241;50.920;6.936;2022-08-11T13:33:48;31.70;49.40
2459;DHT22;1241;50.920;6.936;2022-08-11T13:36:20;31.70;49.50
2459;DHT22;1241;50.920;6.936;2022-08-11T13:38:47;31.70;49.70
2459;DHT22;1241;50.920;6.936;2022-08-11T13:41:14;31.70;49.50
2459;DHT22;1241;50.920;6.936;2022-08-11T13:43:58;31.70;49.20
2459;DHT22;1241;50.920;6.936;2022-08-11T13:46:24;31.60;49.10
2459;DHT22;1241;50.920;6.936;2022-08-11T13:48:53;31.50;49.20
2459;DHT22;1241;50.920;6.936;2022-08-11T13:51:20;31.40;49.20
2459;DHT22;1241;50.920;6.936;2022-08-11T13:54:19;31.40;49.50
2459;DHT22;1241;50.920;6.936;2022-08-11T13:56:47;31.50;49.80
2459;DHT22;1241;50.920;6.936;2022-08-11T13:59:17;31.50;49.40
2459;DHT22;1241;50.920;6.936;2022-08-11T14:01:51;31.60;49.50
2459;DHT22;1241;50.920;6.936;2022-08-11T14:04:33;31.60;49.50
2459;DHT22;1241;50.920;6.936;2022-08-11T14:07:04;31.70;49.80
2459;DHT22;1241;50.920;6.936;2022-08-11T14:09:35;31.80;49.70
2459;DHT22;1241;50.920;6.936;2022-08-11T14:12:31;31.80;49.90
2459;DHT22;1241;50.920;6.936;2022-08-11T14:15:20;31.80;50.00
2459;DHT22;1241;50.920;6.936;2022-08-11T14:20:42;31.70;48.40
2459;DHT22;1241;50.920;6.936;2022-08-11T14:23:32;31.60;48.40
2459;DHT22;1241;50.920;6.936;2022-08-11T14:25:59;31.50;48.30
2459;DHT22;1241;50.920;6.936;2022-08-11T14:28:44;31.40;48.70
2459;DHT22;1241;50.920;6.936;2022-08-11T14:31:15;31.40;48.80
2459;DHT22;1241;50.920;6.936;2022-08-11T14:33:42;31.40;49.00
2459;DHT22;1241;50.920;6.936;2022-08-11T14:36:09;31.50;48.60
2459;DHT22;1241;50.920;6.936;2022-08-11T14:38:36;31.50;48.40
2459;DHT22;1241;50.920;6.936;2022-08-11T14:41:04;31.50;48.60
2459;DHT22;1241;50.920;6.936;2022-08-11T14:43:49;31.50;48.70
2459;DHT22;1241;50.920;6.936;2022-08-11T14:46:34;31.60;48.70
2459;DHT22;1241;50.920;6.936;2022-08-11T14:49:20;31.60;49.20
2459;DHT22;1241;50.920;6.936;2022-08-11T14:51:47;31.70;48.30
2459;DHT22;1241;50.920;6.936;2022-08-11T14:54:14;31.70;48.40
2459;DHT22;1241;50.920;6.936;2022-08-11T14:57:00;31.70;48.20
2459;DHT22;1241;50.920;6.936;2022-08-11T14:59:28;31.90;48.30
2459;DHT22;1241;50.920;6.936;2022-08-11T15:01:54;31.80;48.10
2459;DHT22;1241;50.920;6.936;2022-08-11T15:04:39;31.80;48.10
2459;DHT22;1241;50.920;6.936;2022-08-11T15:07:05;31.90;48.00
2459;DHT22;1241;50.920;6.936;2022-08-11T15:09:31;31.90;48.10
2459;DHT22;1241;50.920;6.936;2022-08-11T15:11:58;31.90;47.80
2459;DHT22;1241;50.920;6.936;2022-08-11T15:14:34;32.00;47.50
2459;DHT22;1241;50.920;6.936;2022-08-11T15:17:19;31.90;47.50
2459;DHT22;1241;50.920;6.936;2022-08-11T15:19:46;31.90;47.60
2459;DHT22;1241;50.920;6.936;2022-08-11T15:22:32;31.90;47.40
2459;DHT22;1241;50.920;6.936;2022-08-11T15:25:17;31.90;47.50
2459;DHT22;1241;50.920;6.936;2022-08-11T15:27:47;31.90;47.70
2459;DHT22;1241;50.920;6.936;2022-08-11T15:30:34;31.80;47.70
2459;DHT22;1241;50.920;6.936;2022-08-11T15:33:21;31.80;47.70
2459;DHT22;1241;50.920;6.936;2022-08-11T15:36:08;31.80;48.00
2459;DHT22;1241;50.920;6.936;2022-08-11T15:39:01;31.70;48.10
2459;DHT22;1241;50.920;6.936;2022-08-11T15:41:34;31.70;48.20
2459;DHT22;1241;50.920;6.936;2022-08-11T15:44:22;31.70;47.90
2459;DHT22;1241;50.920;6.936;2022-08-11T15:47:17;31.70;48.00
2459;DHT22;1241;50.920;6.936;2022-08-11T15:49:45;31.70;48.00
2459;DHT22;1241;50.920;6.936;2022-08-11T15:52:20;31.60;48.00
2459;DHT22;1241;50.920;6.936;2022-08-11T15:54:48;31.60;48.20
2459;DHT22;1241;50.920;6.936;2022-08-11T15:57:16;31.60;48.10
2459;DHT22;1241;50.920;6.936;2022-08-11T16:00:03;31.60;48.00
2459;DHT22;1241;50.920;6.936;2022-08-11T16:02:50;31.60;48.20
2459;DHT22;1241;50.920;6.936;2022-08-11T16:05:35;31.70;48.30
2459;DHT22;1241;50.920;6.936;2022-08-11T16:08:03;31.70;48.40
2459;DHT22;1241;50.920;6.936;2022-08-11T16:10:29;31.70;48.20
2459;DHT22;1241;50.920;6.936;2022-08-11T16:12:59;31.80;48.10
2459;DHT22;1241;50.920;6.936;2022-08-11T16:15:28;31.70;48.20
2459;DHT22;1241;50.920;6.936;2022-08-11T16:18:33;31.60;48.40
2459;DHT22;1241;50.920;6.936;2022-08-11T16:21:17;31.60;48.50
2459;DHT22;1241;50.920;6.936;2022-08-11T16:23:46;31.60;48.20
2459;DHT22;1241;50.920;6.936;2022-08-11T16:26:18;31.50;48.10
2459;DHT22;1241;50.920;6.936;2022-08-11T16:28:51;31.50;48.20
2459;DHT22;1241;50.920;6.936;2022-08-11T16:31:19;31.50;48.30
2459;DHT22;1241;50.920;6.936;2022-08-11T16:33:46;31.50;48.10
2459;DHT22;1241;50.920;6.936;2022-08-11T16:36:13;31.50;48.30
2459;DHT22;1241;50.920;6.936;2022-08-11T16:38:59;31.40;48.20
2459;DHT22;1241;50.920;6.936;2022-08-11T16:41:29;31.50;48.20
2459;DHT22;1241;50.920;6.936;2022-08-11T16:44:16;31.50;48.10
2459;DHT22;1241;50.920;6.936;2022-08-11T16:47:00;31.50;48.40
2459;DHT22;1241;50.920;6.936;2022-08-11T16:49:37;31.40;48.50
2459;DHT22;1241;50.920;6.936;2022-08-11T16:52:05;31.40;48.30
2459;DHT22;1241;50.920;6.936;2022-08-11T16:54:35;31.40;48.30
2459;DHT22;1241;50.920;6.936;2022-08-11T16:57:05;31.40;48.30
2459;DHT22;1241;50.920;6.936;2022-08-11T16:59:52;31.30;48.00
2459;DHT22;1241;50.920;6.936;2022-08-11T17:02:22;31.30;48.20
2459;DHT22;1241;50.920;6.936;2022-08-11T17:05:09;31.30;48.20
2459;DHT22;1241;50.920;6.936;2022-08-11T17:07:55;31.30;48.00
2459;DHT22;1241;50.920;6.936;2022-08-11T17:10:49;31.30;48.10
2459;DHT22;1241;50.920;6.936;2022-08-11T17:13:54;31.30;48.20
2459;DHT22;1241;50.920;6.936;2022-08-11T17:16:29;31.30;48.20
2459;DHT22;1241;50.920;6.936;2022-08-11T17:18:56;31.40;47.90
2459;DHT22;1241;50.920;6.936;2022-08-11T17:24:02;31.20;48.50
2459;DHT22;1241;50.920;6.936;2022-08-11T17:26:34;31.10;48.50
2459;DHT22;1241;50.920;6.936;2022-08-11T17:32:03;31.00;48.70
2459;DHT22;1241;50.920;6.936;2022-08-11T17:34:51;30.90;48.80
2459;DHT22;1241;50.920;6.936;2022-08-11T17:37:37;31.00;48.50
2459;DHT22;1241;50.920;6.936;2022-08-11T17:40:08;30.90;48.60
2459;DHT22;1241;50.920;6.936;2022-08-11T17:42:35;30.90;48.60
2459;DHT22;1241;50.920;6.936;2022-08-11T17:45:22;30.80;48.60
2459;DHT22;1241;50.920;6.936;2022-08-11T17:48:06;30.80;48.60
2459;DHT22;1241;50.920;6.936;2022-08-11T17:50:55;30.70;48.90
2459;DHT22;1241;50.920;6.936;2022-08-11T17:53:22;30.70;49.10
2459;DHT22;1241;50.920;6.936;2022-08-11T17:56:07;30.60;49.20
2459;DHT22;1241;50.920;6.936;2022-08-11T17:58:53;30.50;49.50
2459;DHT22;1241;50.920;6.936;2022-08-11T18:01:38;30.40;49.70
2459;DHT22;1241;50.920;6.936;2022-08-11T18:04:06;30.40;49.90
2459;DHT22;1241;50.920;6.936;2022-08-11T18:06:35;30.40;50.00
2459;DHT22;1241;50.920;6.936;2022-08-11T18:09:12;30.40;50.20
2459;DHT22;1241;50.920;6.936;2022-08-11T18:11:59;30.30;50.40
2459;DHT22;1241;50.920;6.936;2022-08-11T18:14:47;30.30;50.60
2459;DHT22;1241;50.920;6.936;2022-08-11T18:17:33;30.20;50.50
2459;DHT22;1241;50.920;6.936;2022-08-11T18:20:18;30.10;50.50
2459;DHT22;1241;50.920;6.936;2022-08-11T18:23:07;30.10;50.80
2459;DHT22;1241;50.920;6.936;2022-08-11T18:25:53;30.00;50.70
2459;DHT22;1241;50.920;6.936;2022-08-11T18:28:45;30.00;51.10
2459;DHT22;1241;50.920;6.936;2022-08-11T18:31:33;29.90;51.10
2459;DHT22;1241;50.920;6.936;2022-08-11T18:34:23;29.70;51.10
2459;DHT22;1241;50.920;6.936;2022-08-11T18:37:15;29.70;51.40
2459;DHT22;1241;50.920;6.936;2022-08-11T18:40:04;29.60;51.30
2459;DHT22;1241;50.920;6.936;2022-08-11T18:42:53;29.50;51.10
2459;DHT22;1241;50.920;6.936;2022-08-11T18:45:39;29.40;51.40
2459;DHT22;1241;50.920;6.936;2022-08-11T18:48:25;29.40;51.40
2459;DHT22;1241;50.920;6.936;2022-08-11T18:51:12;29.30;51.60
2459;DHT22;1241;50.920;6.936;2022-08-11T18:54:01;29.20;51.50
2459;DHT22;1241;50.920;6.936;2022-08-11T18:56:46;29.00;51.80
2459;DHT22;1241;50.920;6.936;2022-08-11T18:59:34;28.90;51.70
2459;DHT22;1241;50.920;6.936;2022-08-11T19:02:22;28.90;52.00
2459;DHT22;1241;50.920;6.936;2022-08-11T19:05:07;28.80;52.00
2459;DHT22;1241;50.920;6.936;2022-08-11T19:07:54;28.70;52.30
2459;DHT22;1241;50.920;6.936;2022-08-11T19:10:42;28.60;52.40
2459;DHT22;1241;50.920;6.936;2022-08-11T19:13:33;28.50;52.50
2459;DHT22;1241;50.920;6.936;2022-08-11T19:16:20;28.50;52.60
2459;DHT22;1241;50.920;6.936;2022-08-11T19:19:05;28.40;52.80
2459;DHT22;1241;50.920;6.936;2022-08-11T19:21:51;28.40;53.00
2459;DHT22;1241;50.920;6.936;2022-08-11T19:24:38;28.30;53.20
2459;DHT22;1241;50.920;6.936;2022-08-11T19:27:27;28.20;53.30
2459;DHT22;1241;50.920;6.936;2022-08-11T19:30:12;28.20;53.50
2459;DHT22;1241;50.920;6.936;2022-08-11T19:32:58;28.10;53.80
2459;DHT22;1241;50.920;6.936;2022-08-11T19:35:43;28.00;54.00
2459;DHT22;1241;50.920;6.936;2022-08-11T19:38:29;27.90;54.30
2459;DHT22;1241;50.920;6.936;2022-08-11T19:41:14;27.90;54.70
2459;DHT22;1241;50.920;6.936;2022-08-11T19:44:01;27.80;55.10
2459;DHT22;1241;50.920;6.936;2022-08-11T19:46:47;27.70;55.30
2459;DHT22;1241;50.920;6.936;2022-08-11T19:49:34;27.70;55.60
2459;DHT22;1241;50.920;6.936;2022-08-11T19:52:19;27.70;55.80
2459;DHT22;1241;50.920;6.936;2022-08-11T19:55:05;27.60;55.90
2459;DHT22;1241;50.920;6.936;2022-08-11T19:57:51;27.50;56.00
2459;DHT22;1241;50.920;6.936;2022-08-11T20:00:37;27.50;56.30
2459;DHT22;1241;50.920;6.936;2022-08-11T20:03:22;27.40;56.50
2459;DHT22;1241;50.920;6.936;2022-08-11T20:06:07;27.40;56.90
2459;DHT22;1241;50.920;6.936;2022-08-11T20:08:59;27.30;57.20
2459;DHT22;1241;50.920;6.936;2022-08-11T20:11:47;27.20;57.50
2459;DHT22;1241;50.920;6.936;2022-08-11T20:14:34;27.10;57.70
2459;DHT22;1241;50.920;6.936;2022-08-11T20:17:21;27.10;58.00
2459;DHT22;1241;50.920;6.936;2022-08-11T20:20:07;27.00;58.10
2459;DHT22;1241;50.920;6.936;2022-08-11T20:22:54;26.90;58.30
2459;DHT22;1241;50.920;6.936;2022-08-11T20:25:40;26.80;58.60
2459;DHT22;1241;50.920;6.936;2022-08-11T20:28:26;26.80;58.90
2459;DHT22;1241;50.920;6.936;2022-08-11T20:31:11;26.70;59.20
2459;DHT22;1241;50.920;6.936;2022-08-11T20:33:57;26.60;59.40
2459;DHT22;1241;50.920;6.936;2022-08-11T20:36:44;26.50;59.50
2459;DHT22;1241;50.920;6.936;2022-08-11T20:39:30;26.50;62.60
2459;DHT22;1241;50.920;6.936;2022-08-11T20:42:17;26.50;61.60
2459;DHT22;1241;50.920;6.936;2022-08-11T20:45:03;26.50;60.90
2459;DHT22;1241;50.920;6.936;2022-08-11T20:47:52;26.40;61.70
2459;DHT22;1241;50.920;6.936;2022-08-11T20:50:38;26.40;61.50
2459;DHT22;1241;50.920;6.936;2022-08-11T20:53:23;26.30;62.50
2459;DHT22;1241;50.920;6.936;2022-08-11T20:56:10;26.30;63.30
2459;DHT22;1241;50.920;6.936;2022-08-11T20:58:58;26.20;63.40
2459;DHT22;1241;50.920;6.936;2022-08-11T21:01:43;26.20;63.10
2459;DHT22;1241;50.920;6.936;2022-08-11T21:04:28;26.20;63.80
2459;DHT22;1241;50.920;6.936;2022-08-11T21:07:13;26.10;62.30
2459;DHT22;1241;50.920;6.936;2022-08-11T21:10:00;26.10;64.20
2459;DHT22;1241;50.920;6.936;2022-08-11T21:12:46;26.10;63.60
2459;DHT22;1241;50.920;6.936;2022-08-11T21:15:34;26.10;64.30
2459;DHT22;1241;50.920;6.936;2022-08-11T21:18:20;26.00;64.40
2459;DHT22;1241;50.920;6.936;2022-08-11T21:21:10;26.00;64.10
2459;DHT22;1241;50.920;6.936;2022-08-11T21:23:56;25.90;63.40